sensor_id;sensor_type;location;lat;lon;timestamp;P1;durP1;ratioP1;P2;durP2;ratioP2
36475;SDS011;56615;42.682;23.364;2022-09-30T00:01:46;17.75;;;8.82;;
36475;SDS011;56615;42.682;23.364;2022-09-30T00:04:15;15.95;;;8.52;;
36475;SDS011;56615;42.682;23.364;2022-09-30T00:06:44;14.40;;;8.63;;
36475;SDS011;56615;42.682;23.364;2022-09-30T00:09:09;14.10;;;8.07;;
36475;SDS011;56615;42.682;23.364;2022-09-30T00:11:38;16.23;;;8.95;;
36475;SDS011;56615;42.682;23.364;2022-09-30T00:14:04;11.52;;;7.55;;
36475;SDS011;56615;42.682;23.364;2022-09-30T00:16:33;14.60;;;8.55;;
36475;SDS011;56615;42.682;23.364;2022-09-30T00:18:59;15.00;;;8.48;;
36475;SDS011;56615;42.682;23.364;2022-09-30T00:21:25;13.98;;;8.70;;
36475;SDS011;56615;42.682;23.364;2022-09-30T00:23:52;16.73;;;9.10;;
36475;SDS011;56615;42.682;23.364;2022-09-30T00:26:19;15.73;;;9.50;;
36475;SDS011;56615;42.682;23.364;2022-09-30T00:28:48;15.43;;;9.60;;
36475;SDS011;56615;42.682;23.364;2022-09-30T00:31:19;17.08;;;8.73;;
36475;SDS011;56615;42.682;23.364;2022-09-30T00:33:45;17.45;;;9.55;;
36475;SDS011;56615;42.682;23.364;2022-09-30T00:36:30;15.23;;;9.60;;
36475;SDS011;56615;42.682;23.364;2022-09-30T00:38:55;17.02;;;9.13;;
36475;SDS011;56615;42.682;23.364;2022-09-30T00:41:20;14.73;;;9.02;;
36475;SDS011;56615;42.682;23.364;2022-09-30T00:43:51;15.68;;;9.13;;
36475;SDS011;56615;42.682;23.364;2022-09-30T00:49:04;13.38;;;9.02;;
36475;SDS011;56615;42.682;23.364;2022-09-30T00:51:35;13.85;;;8.80;;
36475;SDS011;56615;42.682;23.364;2022-09-30T00:54:06;15.68;;;9.77;;
36475;SDS011;56615;42.682;23.364;2022-09-30T00:56:38;13.40;;;9.48;;
36475;SDS011;56615;42.682;23.364;2022-09-30T00:59:24;20.63;;;10.90;;
36475;SDS011;56615;42.682;23.364;2022-09-30T01:01:51;23.40;;;10.80;;
36475;SDS011;56615;42.682;23.364;2022-09-30T01:04:22;17.05;;;10.43;;
36475;SDS011;56615;42.682;23.364;2022-09-30T01:06:49;17.98;;;11.30;;
36475;SDS011;56615;42.682;23.364;2022-09-30T01:09:15;17.73;;;11.73;;
36475;SDS011;56615;42.682;23.364;2022-09-30T01:11:41;21.40;;;12.43;;
36475;SDS011;56615;42.682;23.364;2022-09-30T01:14:10;20.95;;;12.65;;
36475;SDS011;56615;42.682;23.364;2022-09-30T01:16:54;18.63;;;12.25;;
36475;SDS011;56615;42.682;23.364;2022-09-30T01:31:44;15.00;;;10.88;;
36475;SDS011;56615;42.682;23.364;2022-09-30T01:34:36;17.33;;;10.75;;
36475;SDS011;56615;42.682;23.364;2022-09-30T01:37:22;17.60;;;11.40;;
36475;SDS011;56615;42.682;23.364;2022-09-30T01:42:38;21.17;;;11.60;;
36475;SDS011;56615;42.682;23.364;2022-09-30T01:45:36;19.83;;;10.50;;
36475;SDS011;56615;42.682;23.364;2022-09-30T01:51:04;19.17;;;10.98;;
36475;SDS011;56615;42.682;23.364;2022-09-30T01:53:42;19.02;;;11.55;;
36475;SDS011;56615;42.682;23.364;2022-09-30T01:56:23;18.10;;;9.60;;
36475;SDS011;56615;42.682;23.364;2022-09-30T01:58:56;17.63;;;11.07;;
36475;SDS011;56615;42.682;23.364;2022-09-30T02:01:27;15.68;;;10.85;;
36475;SDS011;56615;42.682;23.364;2022-09-30T02:04:08;17.70;;;11.02;;
36475;SDS011;56615;42.682;23.364;2022-09-30T02:06:38;19.25;;;11.05;;
36475;SDS011;56615;42.682;23.364;2022-09-30T02:12:09;17.63;;;10.27;;
36475;SDS011;56615;42.682;23.364;2022-09-30T02:14:42;14.93;;;9.93;;
36475;SDS011;56615;42.682;23.364;2022-09-30T02:19:44;15.40;;;9.95;;
36475;SDS011;56615;42.682;23.364;2022-09-30T02:24:45;18.48;;;10.38;;
36475;SDS011;56615;42.682;23.364;2022-09-30T02:27:15;20.52;;;12.20;;
36475;SDS011;56615;42.682;23.364;2022-09-30T02:29:45;102.50;;;13.85;;
36475;SDS011;56615;42.682;23.364;2022-09-30T02:32:16;35.03;;;14.68;;
36475;SDS011;56615;42.682;23.364;2022-09-30T02:34:56;21.15;;;12.32;;
36475;SDS011;56615;42.682;23.364;2022-09-30T02:37:34;22.70;;;13.45;;
36475;SDS011;56615;42.682;23.364;2022-09-30T02:42:36;24.85;;;14.25;;
36475;SDS011;56615;42.682;23.364;2022-09-30T02:45:10;30.23;;;14.00;;
36475;SDS011;56615;42.682;23.364;2022-09-30T02:53:17;21.08;;;13.15;;
36475;SDS011;56615;42.682;23.364;2022-09-30T02:56:05;20.98;;;13.45;;
36475;SDS011;56615;42.682;23.364;2022-09-30T02:58:35;20.52;;;13.63;;
36475;SDS011;56615;42.682;23.364;2022-09-30T03:01:03;19.90;;;12.93;;
36475;SDS011;56615;42.682;23.364;2022-09-30T03:03:37;19.88;;;13.32;;
36475;SDS011;56615;42.682;23.364;2022-09-30T03:09:40;18.85;;;11.70;;
36475;SDS011;56615;42.682;23.364;2022-09-30T03:12:24;18.58;;;12.30;;
36475;SDS011;56615;42.682;23.364;2022-09-30T03:15:32;20.65;;;11.82;;
36475;SDS011;56615;42.682;23.364;2022-09-30T03:26:36;20.90;;;11.82;;
36475;SDS011;56615;42.682;23.364;2022-09-30T03:29:14;18.85;;;12.65;;
36475;SDS011;56615;42.682;23.364;2022-09-30T03:31:51;18.65;;;12.13;;
36475;SDS011;56615;42.682;23.364;2022-09-30T03:34:29;17.63;;;11.20;;
36475;SDS011;56615;42.682;23.364;2022-09-30T03:42:27;16.73;;;10.70;;
36475;SDS011;56615;42.682;23.364;2022-09-30T03:45:16;20.40;;;11.55;;
36475;SDS011;56615;42.682;23.364;2022-09-30T03:47:48;23.98;;;11.60;;
36475;SDS011;56615;42.682;23.364;2022-09-30T03:50:17;18.67;;;11.50;;
36475;SDS011;56615;42.682;23.364;2022-09-30T03:52:45;17.85;;;11.10;;
36475;SDS011;56615;42.682;23.364;2022-09-30T03:55:13;20.15;;;11.13;;
36475;SDS011;56615;42.682;23.364;2022-09-30T03:57:39;18.00;;;11.40;;
36475;SDS011;56615;42.682;23.364;2022-09-30T04:00:12;20.25;;;11.75;;
36475;SDS011;56615;42.682;23.364;2022-09-30T04:02:38;19.17;;;12.13;;
36475;SDS011;56615;42.682;23.364;2022-09-30T04:05:04;23.38;;;13.15;;
36475;SDS011;56615;42.682;23.364;2022-09-30T04:07:30;21.25;;;12.85;;
36475;SDS011;56615;42.682;23.364;2022-09-30T04:09:56;25.73;;;13.95;;
36475;SDS011;56615;42.682;23.364;2022-09-30T04:12:21;23.88;;;14.07;;
36475;SDS011;56615;42.682;23.364;2022-09-30T04:14:48;22.70;;;13.13;;
36475;SDS011;56615;42.682;23.364;2022-09-30T04:17:14;22.30;;;13.60;;
36475;SDS011;56615;42.682;23.364;2022-09-30T04:19:39;22.65;;;12.93;;
36475;SDS011;56615;42.682;23.364;2022-09-30T04:22:05;22.83;;;13.10;;
36475;SDS011;56615;42.682;23.364;2022-09-30T04:24:31;19.80;;;13.35;;
36475;SDS011;56615;42.682;23.364;2022-09-30T04:26:57;20.15;;;13.13;;
36475;SDS011;56615;42.682;23.364;2022-09-30T04:29:22;37.25;;;14.07;;
36475;SDS011;56615;42.682;23.364;2022-09-30T04:31:48;22.17;;;14.05;;
36475;SDS011;56615;42.682;23.364;2022-09-30T04:34:14;21.75;;;13.73;;
36475;SDS011;56615;42.682;23.364;2022-09-30T04:36:39;21.33;;;13.30;;
36475;SDS011;56615;42.682;23.364;2022-09-30T04:39:05;22.50;;;13.52;;
36475;SDS011;56615;42.682;23.364;2022-09-30T04:41:32;21.02;;;13.27;;
36475;SDS011;56615;42.682;23.364;2022-09-30T04:43:58;25.30;;;14.20;;
36475;SDS011;56615;42.682;23.364;2022-09-30T04:46:30;25.73;;;14.98;;
36475;SDS011;56615;42.682;23.364;2022-09-30T04:48:57;27.25;;;15.25;;
36475;SDS011;56615;42.682;23.364;2022-09-30T04:51:24;30.58;;;15.07;;
36475;SDS011;56615;42.682;23.364;2022-09-30T04:53:49;24.98;;;15.10;;
36475;SDS011;56615;42.682;23.364;2022-09-30T04:56:15;59.13;;;15.05;;
36475;SDS011;56615;42.682;23.364;2022-09-30T04:58:41;23.85;;;13.90;;
36475;SDS011;56615;42.682;23.364;2022-09-30T05:01:07;30.27;;;14.40;;
36475;SDS011;56615;42.682;23.364;2022-09-30T05:03:35;24.13;;;13.85;;
36475;SDS011;56615;42.682;23.364;2022-09-30T05:06:00;22.58;;;13.70;;
36475;SDS011;56615;42.682;23.364;2022-09-30T05:08:26;32.30;;;14.98;;
36475;SDS011;56615;42.682;23.364;2022-09-30T05:10:58;28.70;;;16.05;;
36475;SDS011;56615;42.682;23.364;2022-09-30T05:13:25;53.47;;;14.98;;
36475;SDS011;56615;42.682;23.364;2022-09-30T05:15:54;27.77;;;16.13;;
36475;SDS011;56615;42.682;23.364;2022-09-30T05:18:20;31.45;;;15.23;;
36475;SDS011;56615;42.682;23.364;2022-09-30T05:20:52;26.95;;;16.20;;
36475;SDS011;56615;42.682;23.364;2022-09-30T05:23:18;23.45;;;15.27;;
36475;SDS011;56615;42.682;23.364;2022-09-30T05:25:45;20.55;;;14.48;;
36475;SDS011;56615;42.682;23.364;2022-09-30T05:28:10;23.85;;;14.55;;
36475;SDS011;56615;42.682;23.364;2022-09-30T05:30:36;23.05;;;15.68;;
36475;SDS011;56615;42.682;23.364;2022-09-30T05:33:02;24.15;;;15.00;;
36475;SDS011;56615;42.682;23.364;2022-09-30T05:35:29;21.98;;;14.30;;
36475;SDS011;56615;42.682;23.364;2022-09-30T05:37:54;38.78;;;15.15;;
36475;SDS011;56615;42.682;23.364;2022-09-30T05:40:19;27.48;;;16.38;;
36475;SDS011;56615;42.682;23.364;2022-09-30T05:42:45;25.05;;;16.13;;
36475;SDS011;56615;42.682;23.364;2022-09-30T05:45:11;22.88;;;15.73;;
36475;SDS011;56615;42.682;23.364;2022-09-30T05:47:36;26.25;;;16.83;;
36475;SDS011;56615;42.682;23.364;2022-09-30T05:50:04;24.35;;;16.73;;
36475;SDS011;56615;42.682;23.364;2022-09-30T05:52:30;29.33;;;16.45;;
36475;SDS011;56615;42.682;23.364;2022-09-30T05:54:56;25.27;;;16.83;;
36475;SDS011;56615;42.682;23.364;2022-09-30T05:57:24;25.58;;;18.08;;
36475;SDS011;56615;42.682;23.364;2022-09-30T05:59:53;26.77;;;17.13;;
36475;SDS011;56615;42.682;23.364;2022-09-30T06:02:19;31.35;;;19.42;;
36475;SDS011;56615;42.682;23.364;2022-09-30T06:04:44;29.65;;;18.65;;
36475;SDS011;56615;42.682;23.364;2022-09-30T06:07:09;29.02;;;20.10;;
36475;SDS011;56615;42.682;23.364;2022-09-30T06:09:35;34.33;;;19.40;;
36475;SDS011;56615;42.682;23.364;2022-09-30T06:12:00;31.85;;;21.42;;
36475;SDS011;56615;42.682;23.364;2022-09-30T06:14:27;30.35;;;20.60;;
36475;SDS011;56615;42.682;23.364;2022-09-30T06:16:52;33.30;;;19.95;;
36475;SDS011;56615;42.682;23.364;2022-09-30T06:19:18;34.55;;;20.95;;
36475;SDS011;56615;42.682;23.364;2022-09-30T06:21:45;32.92;;;20.67;;
36475;SDS011;56615;42.682;23.364;2022-09-30T06:24:10;33.47;;;20.15;;
36475;SDS011;56615;42.682;23.364;2022-09-30T06:26:37;33.72;;;20.35;;
36475;SDS011;56615;42.682;23.364;2022-09-30T06:29:03;48.33;;;20.90;;
36475;SDS011;56615;42.682;23.364;2022-09-30T06:31:29;40.50;;;19.73;;
36475;SDS011;56615;42.682;23.364;2022-09-30T06:33:56;32.08;;;20.50;;
36475;SDS011;56615;42.682;23.364;2022-09-30T06:36:22;31.52;;;20.05;;
36475;SDS011;56615;42.682;23.364;2022-09-30T06:38:48;30.67;;;21.00;;
36475;SDS011;56615;42.682;23.364;2022-09-30T06:41:16;33.22;;;21.75;;
36475;SDS011;56615;42.682;23.364;2022-09-30T06:43:42;32.10;;;21.02;;
36475;SDS011;56615;42.682;23.364;2022-09-30T06:46:07;28.67;;;20.02;;
36475;SDS011;56615;42.682;23.364;2022-09-30T06:48:37;27.08;;;18.85;;
36475;SDS011;56615;42.682;23.364;2022-09-30T06:51:06;24.75;;;16.92;;
36475;SDS011;56615;42.682;23.364;2022-09-30T06:53:37;24.75;;;16.77;;
36475;SDS011;56615;42.682;23.364;2022-09-30T06:56:04;25.58;;;17.30;;
36475;SDS011;56615;42.682;23.364;2022-09-30T06:58:32;25.00;;;17.27;;
36475;SDS011;56615;42.682;23.364;2022-09-30T07:00:59;25.75;;;17.92;;
36475;SDS011;56615;42.682;23.364;2022-09-30T07:03:30;24.88;;;17.25;;
36475;SDS011;56615;42.682;23.364;2022-09-30T07:05:58;24.67;;;17.40;;
36475;SDS011;56615;42.682;23.364;2022-09-30T07:08:26;25.48;;;18.13;;
36475;SDS011;56615;42.682;23.364;2022-09-30T07:11:00;25.48;;;18.38;;
36475;SDS011;56615;42.682;23.364;2022-09-30T07:13:28;26.38;;;17.67;;
36475;SDS011;56615;42.682;23.364;2022-09-30T07:15:56;29.15;;;19.23;;
36475;SDS011;56615;42.682;23.364;2022-09-30T07:18:22;29.45;;;18.17;;
36475;SDS011;56615;42.682;23.364;2022-09-30T07:20:52;25.85;;;18.45;;
36475;SDS011;56615;42.682;23.364;2022-09-30T07:23:18;24.73;;;17.20;;
36475;SDS011;56615;42.682;23.364;2022-09-30T07:25:53;23.58;;;17.27;;
36475;SDS011;56615;42.682;23.364;2022-09-30T07:28:21;24.92;;;15.18;;
36475;SDS011;56615;42.682;23.364;2022-09-30T07:30:51;21.92;;;15.32;;
36475;SDS011;56615;42.682;23.364;2022-09-30T07:33:21;21.38;;;14.85;;
36475;SDS011;56615;42.682;23.364;2022-09-30T07:35:50;22.42;;;16.27;;
36475;SDS011;56615;42.682;23.364;2022-09-30T07:38:17;19.90;;;14.95;;
36475;SDS011;56615;42.682;23.364;2022-09-30T07:40:54;21.70;;;14.57;;
36475;SDS011;56615;42.682;23.364;2022-09-30T07:43:21;21.42;;;14.75;;
36475;SDS011;56615;42.682;23.364;2022-09-30T07:45:48;20.80;;;14.85;;
36475;SDS011;56615;42.682;23.364;2022-09-30T07:48:14;20.15;;;13.90;;
36475;SDS011;56615;42.682;23.364;2022-09-30T07:50:58;20.98;;;12.88;;
36475;SDS011;56615;42.682;23.364;2022-09-30T07:53:24;18.25;;;13.45;;
36475;SDS011;56615;42.682;23.364;2022-09-30T07:55:50;20.17;;;13.32;;
36475;SDS011;56615;42.682;23.364;2022-09-30T07:58:15;17.05;;;12.88;;
36475;SDS011;56615;42.682;23.364;2022-09-30T08:00:41;17.52;;;12.43;;
36475;SDS011;56615;42.682;23.364;2022-09-30T08:03:07;17.10;;;12.68;;
36475;SDS011;56615;42.682;23.364;2022-09-30T08:05:37;22.42;;;10.77;;
36475;SDS011;56615;42.682;23.364;2022-09-30T08:08:04;17.42;;;10.80;;
36475;SDS011;56615;42.682;23.364;2022-09-30T08:10:34;15.45;;;9.65;;
36475;SDS011;56615;42.682;23.364;2022-09-30T08:13:01;14.43;;;8.70;;
36475;SDS011;56615;42.682;23.364;2022-09-30T08:15:27;14.07;;;8.45;;
36475;SDS011;56615;42.682;23.364;2022-09-30T08:17:52;18.25;;;9.25;;
36475;SDS011;56615;42.682;23.364;2022-09-30T08:20:18;12.18;;;6.93;;
36475;SDS011;56615;42.682;23.364;2022-09-30T08:22:43;14.55;;;7.55;;
36475;SDS011;56615;42.682;23.364;2022-09-30T08:25:08;16.02;;;7.50;;
36475;SDS011;56615;42.682;23.364;2022-09-30T08:27:34;13.00;;;8.13;;
36475;SDS011;56615;42.682;23.364;2022-09-30T08:30:00;17.20;;;8.88;;
36475;SDS011;56615;42.682;23.364;2022-09-30T08:32:30;18.05;;;8.80;;
36475;SDS011;56615;42.682;23.364;2022-09-30T08:34:58;16.73;;;9.40;;
36475;SDS011;56615;42.682;23.364;2022-09-30T08:37:23;18.27;;;9.60;;
36475;SDS011;56615;42.682;23.364;2022-09-30T08:39:49;17.52;;;9.90;;
36475;SDS011;56615;42.682;23.364;2022-09-30T08:44:52;19.83;;;9.68;;
36475;SDS011;56615;42.682;23.364;2022-09-30T08:52:54;14.93;;;8.68;;
36475;SDS011;56615;42.682;23.364;2022-09-30T08:55:47;15.65;;;7.55;;
36475;SDS011;56615;42.682;23.364;2022-09-30T08:58:31;11.93;;;7.22;;
36475;SDS011;56615;42.682;23.364;2022-09-30T09:01:04;12.98;;;6.88;;
36475;SDS011;56615;42.682;23.364;2022-09-30T09:03:36;12.32;;;7.07;;
36475;SDS011;56615;42.682;23.364;2022-09-30T09:11:29;12.85;;;7.25;;
36475;SDS011;56615;42.682;23.364;2022-09-30T09:14:04;12.25;;;7.22;;
36475;SDS011;56615;42.682;23.364;2022-09-30T09:17:28;12.65;;;7.63;;
36475;SDS011;56615;42.682;23.364;2022-09-30T09:20:15;12.75;;;7.55;;
36475;SDS011;56615;42.682;23.364;2022-09-30T09:22:45;12.30;;;7.60;;
36475;SDS011;56615;42.682;23.364;2022-09-30T09:25:16;13.80;;;7.03;;
36475;SDS011;56615;42.682;23.364;2022-09-30T09:30:21;17.48;;;10.35;;
36475;SDS011;56615;42.682;23.364;2022-09-30T09:43:51;25.35;;;15.63;;
36475;SDS011;56615;42.682;23.364;2022-09-30T09:57:13;26.27;;;17.17;;
36475;SDS011;56615;42.682;23.364;2022-09-30T10:02:45;25.20;;;15.80;;
36475;SDS011;56615;42.682;23.364;2022-09-30T10:05:27;21.48;;;12.25;;
36475;SDS011;56615;42.682;23.364;2022-09-30T10:10:45;18.58;;;11.13;;
36475;SDS011;56615;42.682;23.364;2022-09-30T10:13:15;18.15;;;10.70;;
36475;SDS011;56615;42.682;23.364;2022-09-30T10:15:41;16.95;;;10.30;;
36475;SDS011;56615;42.682;23.364;2022-09-30T10:18:18;16.50;;;10.18;;
36475;SDS011;56615;42.682;23.364;2022-09-30T10:20:50;14.38;;;9.40;;
36475;SDS011;56615;42.682;23.364;2022-09-30T10:26:00;14.98;;;9.00;;
36475;SDS011;56615;42.682;23.364;2022-09-30T10:28:29;14.43;;;8.00;;
36475;SDS011;56615;42.682;23.364;2022-09-30T10:30:58;15.05;;;7.43;;
36475;SDS011;56615;42.682;23.364;2022-09-30T10:35:59;11.45;;;5.85;;
36475;SDS011;56615;42.682;23.364;2022-09-30T10:38:28;13.23;;;6.90;;
36475;SDS011;56615;42.682;23.364;2022-09-30T10:40:56;11.45;;;5.90;;
36475;SDS011;56615;42.682;23.364;2022-09-30T10:46:26;10.02;;;4.97;;
36475;SDS011;56615;42.682;23.364;2022-09-30T10:48:59;11.55;;;5.32;;
36475;SDS011;56615;42.682;23.364;2022-09-30T10:51:50;11.68;;;4.68;;
36475;SDS011;56615;42.682;23.364;2022-09-30T10:57:00;9.25;;;5.07;;
36475;SDS011;56615;42.682;23.364;2022-09-30T11:04:43;9.38;;;4.03;;
36475;SDS011;56615;42.682;23.364;2022-09-30T11:07:20;7.03;;;3.42;;
36475;SDS011;56615;42.682;23.364;2022-09-30T11:10:02;8.90;;;4.30;;
36475;SDS011;56615;42.682;23.364;2022-09-30T11:15:24;7.28;;;3.08;;
36475;SDS011;56615;42.682;23.364;2022-09-30T11:18:01;5.95;;;3.15;;
36475;SDS011;56615;42.682;23.364;2022-09-30T11:20:38;5.60;;;2.95;;
36475;SDS011;56615;42.682;23.364;2022-09-30T11:23:13;7.10;;;3.05;;
36475;SDS011;56615;42.682;23.364;2022-09-30T11:25:55;6.47;;;3.00;;
36475;SDS011;56615;42.682;23.364;2022-09-30T11:31:25;6.10;;;2.67;;
36475;SDS011;56615;42.682;23.364;2022-09-30T11:39:35;6.97;;;2.60;;
36475;SDS011;56615;42.682;23.364;2022-09-30T11:45:06;5.15;;;3.00;;
36475;SDS011;56615;42.682;23.364;2022-09-30T11:53:12;6.18;;;2.60;;
36475;SDS011;56615;42.682;23.364;2022-09-30T11:58:30;7.15;;;2.67;;
36475;SDS011;56615;42.682;23.364;2022-09-30T12:03:38;6.13;;;2.17;;
36475;SDS011;56615;42.682;23.364;2022-09-30T12:09:27;6.07;;;2.55;;
36475;SDS011;56615;42.682;23.364;2022-09-30T12:11:59;6.45;;;2.30;;
36475;SDS011;56615;42.682;23.364;2022-09-30T12:19:27;6.05;;;2.65;;
36475;SDS011;56615;42.682;23.364;2022-09-30T12:22:06;7.93;;;2.83;;
36475;SDS011;56615;42.682;23.364;2022-09-30T12:24:38;5.80;;;2.30;;
36475;SDS011;56615;42.682;23.364;2022-09-30T12:27:13;5.80;;;2.38;;
36475;SDS011;56615;42.682;23.364;2022-09-30T12:30:02;6.57;;;2.50;;
36475;SDS011;56615;42.682;23.364;2022-09-30T12:35:26;5.38;;;2.50;;
36475;SDS011;56615;42.682;23.364;2022-09-30T12:40:46;4.93;;;2.05;;
36475;SDS011;56615;42.682;23.364;2022-09-30T12:46:25;6.45;;;2.35;;
36475;SDS011;56615;42.682;23.364;2022-09-30T12:48:59;4.40;;;1.70;;
36475;SDS011;56615;42.682;23.364;2022-09-30T12:51:31;5.65;;;2.00;;
36475;SDS011;56615;42.682;23.364;2022-09-30T12:54:04;4.77;;;1.90;;
36475;SDS011;56615;42.682;23.364;2022-09-30T12:56:40;7.03;;;2.33;;
36475;SDS011;56615;42.682;23.364;2022-09-30T12:59:07;37.83;;;5.43;;
36475;SDS011;56615;42.682;23.364;2022-09-30T13:01:37;64.10;;;8.95;;
36475;SDS011;56615;42.682;23.364;2022-09-30T13:09:34;27.25;;;4.43;;
36475;SDS011;56615;42.682;23.364;2022-09-30T13:14:38;8.73;;;2.72;;
36475;SDS011;56615;42.682;23.364;2022-09-30T13:19:34;7.85;;;2.42;;
36475;SDS011;56615;42.682;23.364;2022-09-30T13:28:24;6.75;;;2.05;;
36475;SDS011;56615;42.682;23.364;2022-09-30T13:30:39;5.97;;;2.15;;
36475;SDS011;56615;42.682;23.364;2022-09-30T13:33:26;7.88;;;2.53;;
36475;SDS011;56615;42.682;23.364;2022-09-30T13:36:03;5.32;;;2.00;;
36475;SDS011;56615;42.682;23.364;2022-09-30T13:38:37;3.67;;;1.92;;
36475;SDS011;56615;42.682;23.364;2022-09-30T13:41:13;6.55;;;2.00;;
36475;SDS011;56615;42.682;23.364;2022-09-30T13:43:44;5.18;;;1.98;;
36475;SDS011;56615;42.682;23.364;2022-09-30T13:51:47;5.18;;;1.98;;
36475;SDS011;56615;42.682;23.364;2022-09-30T13:56:52;6.68;;;2.00;;
36475;SDS011;56615;42.682;23.364;2022-09-30T14:02:39;4.93;;;2.05;;
36475;SDS011;56615;42.682;23.364;2022-09-30T14:05:43;3.47;;;1.85;;
36475;SDS011;56615;42.682;23.364;2022-09-30T14:11:10;3.80;;;2.05;;
36475;SDS011;56615;42.682;23.364;2022-09-30T14:14:20;5.07;;;1.80;;
36475;SDS011;56615;42.682;23.364;2022-09-30T14:17:31;4.07;;;1.83;;
36475;SDS011;56615;42.682;23.364;2022-09-30T14:22:49;5.22;;;1.88;;
36475;SDS011;56615;42.682;23.364;2022-09-30T14:25:22;5.93;;;2.05;;
36475;SDS011;56615;42.682;23.364;2022-09-30T14:28:01;4.68;;;1.80;;
36475;SDS011;56615;42.682;23.364;2022-09-30T14:30:31;7.50;;;2.00;;
36475;SDS011;56615;42.682;23.364;2022-09-30T14:33:15;4.80;;;1.77;;
36475;SDS011;56615;42.682;23.364;2022-09-30T14:35:50;6.15;;;1.90;;
36475;SDS011;56615;42.682;23.364;2022-09-30T14:38:24;4.50;;;1.88;;
36475;SDS011;56615;42.682;23.364;2022-09-30T14:40:54;3.92;;;1.65;;
36475;SDS011;56615;42.682;23.364;2022-09-30T14:43:29;5.35;;;1.90;;
36475;SDS011;56615;42.682;23.364;2022-09-30T14:46:06;3.67;;;1.90;;
36475;SDS011;56615;42.682;23.364;2022-09-30T14:48:35;4.25;;;1.80;;
36475;SDS011;56615;42.682;23.364;2022-09-30T14:51:06;8.15;;;2.20;;
36475;SDS011;56615;42.682;23.364;2022-09-30T14:53:51;3.70;;;1.83;;
36475;SDS011;56615;42.682;23.364;2022-09-30T14:56:30;4.68;;;1.90;;
36475;SDS011;56615;42.682;23.364;2022-09-30T14:58:59;5.75;;;1.90;;
36475;SDS011;56615;42.682;23.364;2022-09-30T15:01:28;7.50;;;2.35;;
36475;SDS011;56615;42.682;23.364;2022-09-30T15:04:06;6.03;;;1.73;;
36475;SDS011;56615;42.682;23.364;2022-09-30T15:06:37;3.75;;;1.80;;
36475;SDS011;56615;42.682;23.364;2022-09-30T15:09:27;4.22;;;1.95;;
36475;SDS011;56615;42.682;23.364;2022-09-30T15:14:47;9.73;;;2.20;;
36475;SDS011;56615;42.682;23.364;2022-09-30T15:17:24;6.22;;;2.40;;
36475;SDS011;56615;42.682;23.364;2022-09-30T15:19:52;5.82;;;2.60;;
36475;SDS011;56615;42.682;23.364;2022-09-30T15:22:19;8.98;;;2.53;;
36475;SDS011;56615;42.682;23.364;2022-09-30T15:24:46;7.25;;;2.70;;
36475;SDS011;56615;42.682;23.364;2022-09-30T15:27:14;6.45;;;2.88;;
36475;SDS011;56615;42.682;23.364;2022-09-30T15:29:57;7.35;;;3.00;;
36475;SDS011;56615;42.682;23.364;2022-09-30T15:32:25;7.00;;;2.80;;
36475;SDS011;56615;42.682;23.364;2022-09-30T15:34:52;7.97;;;3.00;;
36475;SDS011;56615;42.682;23.364;2022-09-30T15:37:19;5.60;;;2.65;;
36475;SDS011;56615;42.682;23.364;2022-09-30T15:39:47;7.95;;;2.65;;
36475;SDS011;56615;42.682;23.364;2022-09-30T15:50:57;5.20;;;2.45;;
36475;SDS011;56615;42.682;23.364;2022-09-30T15:53:28;7.53;;;2.85;;
36475;SDS011;56615;42.682;23.364;2022-09-30T15:56:21;6.05;;;2.70;;
36475;SDS011;56615;42.682;23.364;2022-09-30T16:01:40;8.50;;;2.92;;
36475;SDS011;56615;42.682;23.364;2022-09-30T16:06:55;8.02;;;2.50;;
36475;SDS011;56615;42.682;23.364;2022-09-30T16:09:27;10.93;;;3.10;;
36475;SDS011;56615;42.682;23.364;2022-09-30T16:14:45;10.52;;;3.72;;
36475;SDS011;56615;42.682;23.364;2022-09-30T16:17:35;8.57;;;3.30;;
36475;SDS011;56615;42.682;23.364;2022-09-30T16:25:15;13.98;;;2.70;;
36475;SDS011;56615;42.682;23.364;2022-09-30T16:27:43;7.28;;;3.15;;
36475;SDS011;56615;42.682;23.364;2022-09-30T16:30:11;6.72;;;2.72;;
36475;SDS011;56615;42.682;23.364;2022-09-30T16:32:42;7.05;;;2.80;;
36475;SDS011;56615;42.682;23.364;2022-09-30T16:35:14;10.20;;;2.72;;
36475;SDS011;56615;42.682;23.364;2022-09-30T16:37:42;8.40;;;2.80;;
36475;SDS011;56615;42.682;23.364;2022-09-30T16:40:15;6.85;;;2.70;;
36475;SDS011;56615;42.682;23.364;2022-09-30T16:42:43;8.10;;;3.40;;
36475;SDS011;56615;42.682;23.364;2022-09-30T16:45:12;9.00;;;3.22;;
36475;SDS011;56615;42.682;23.364;2022-09-30T16:47:40;10.05;;;3.55;;
36475;SDS011;56615;42.682;23.364;2022-09-30T16:50:16;7.65;;;3.17;;
36475;SDS011;56615;42.682;23.364;2022-09-30T16:52:48;8.73;;;3.40;;
36475;SDS011;56615;42.682;23.364;2022-09-30T16:55:15;7.13;;;3.50;;
36475;SDS011;56615;42.682;23.364;2022-09-30T16:57:41;10.35;;;3.78;;
36475;SDS011;56615;42.682;23.364;2022-09-30T17:00:09;9.70;;;3.58;;
36475;SDS011;56615;42.682;23.364;2022-09-30T17:02:37;9.63;;;4.05;;
36475;SDS011;56615;42.682;23.364;2022-09-30T17:05:03;8.48;;;3.53;;
36475;SDS011;56615;42.682;23.364;2022-09-30T17:07:31;6.75;;;3.85;;
36475;SDS011;56615;42.682;23.364;2022-09-30T17:09:57;13.55;;;4.10;;
36475;SDS011;56615;42.682;23.364;2022-09-30T17:12:22;8.63;;;3.33;;
36475;SDS011;56615;42.682;23.364;2022-09-30T17:14:49;11.48;;;3.78;;
36475;SDS011;56615;42.682;23.364;2022-09-30T17:17:14;10.63;;;3.60;;
36475;SDS011;56615;42.682;23.364;2022-09-30T17:19:42;12.48;;;4.00;;
36475;SDS011;56615;42.682;23.364;2022-09-30T17:22:08;10.88;;;4.55;;
36475;SDS011;56615;42.682;23.364;2022-09-30T17:24:34;10.80;;;4.05;;
36475;SDS011;56615;42.682;23.364;2022-09-30T17:26:59;11.50;;;4.68;;
36475;SDS011;56615;42.682;23.364;2022-09-30T17:29:25;9.48;;;4.03;;
36475;SDS011;56615;42.682;23.364;2022-09-30T17:31:51;9.13;;;4.25;;
36475;SDS011;56615;42.682;23.364;2022-09-30T17:34:18;10.55;;;4.10;;
36475;SDS011;56615;42.682;23.364;2022-09-30T17:36:45;10.20;;;4.18;;
36475;SDS011;56615;42.682;23.364;2022-09-30T17:39:11;7.20;;;3.60;;
36475;SDS011;56615;42.682;23.364;2022-09-30T17:41:38;10.50;;;4.60;;
36475;SDS011;56615;42.682;23.364;2022-09-30T17:44:23;12.80;;;4.32;;
36475;SDS011;56615;42.682;23.364;2022-09-30T17:46:49;9.85;;;4.30;;
36475;SDS011;56615;42.682;23.364;2022-09-30T17:49:29;11.60;;;3.72;;
36475;SDS011;56615;42.682;23.364;2022-09-30T17:54:23;10.38;;;3.90;;
36475;SDS011;56615;42.682;23.364;2022-09-30T17:56:50;6.13;;;3.10;;
36475;SDS011;56615;42.682;23.364;2022-09-30T17:59:17;8.40;;;3.97;;
36475;SDS011;56615;42.682;23.364;2022-09-30T18:01:47;10.82;;;4.07;;
36475;SDS011;56615;42.682;23.364;2022-09-30T18:04:14;11.48;;;4.60;;
36475;SDS011;56615;42.682;23.364;2022-09-30T18:06:41;13.90;;;6.88;;
36475;SDS011;56615;42.682;23.364;2022-09-30T18:09:06;11.75;;;5.15;;
36475;SDS011;56615;42.682;23.364;2022-09-30T18:11:32;10.82;;;5.20;;
36475;SDS011;56615;42.682;23.364;2022-09-30T18:13:58;10.57;;;5.38;;
36475;SDS011;56615;42.682;23.364;2022-09-30T18:16:29;11.52;;;4.88;;
36475;SDS011;56615;42.682;23.364;2022-09-30T18:19:00;12.07;;;4.88;;